Etusivu
METAR-TAF:

METAR-TAF

Lentoasemat :

Eveleth-Virginia Municipal Airport

Eveleth, Minnesota, Yhdysvallat

Leveyspiiri: 47-24N, Pituuspiiri: 092-30W, korkeus merenpinnasta: 421 m

Tämänhetkinen sää

Tämä raportti tehtiin 10 minuuttia sitten, kello 10.56 UTC
Tuuli 4 kn etelästä/lounaasta
Lämpötila 1°C
Kosteus 100%
Ilmanpaine 1010 hPa
Näkyvyys: 2.0 km
Pilvistä 200 ft:n korkeudessa
heikkoa sadetta

METAR: KEVM 171056Z AUTO 20004KT 1 1/4SM -RA OVC002 01/01 A2982 RMK AO2 T00080006

Aika: 05:06 (11:06 UTC)


TAF: puuttuu

Säähavainnot ja -ennusteet yli 4000 lentoasemalta (METAR- ja TAF-raportit).

Käytössä olevat sääasemat on merkitty karttaan keltaisilla ja punaisilla pisteillä.

Aseta hiiri pisteen päälle nähdäksesi sääaseman nimen.

Klikkaa sitten nähdäksesi säähavainnot ja -ennusteet.

Kartan vaihtaminen: klikkaa mustalla rastilla varustettuja vihreitä pisteitä, niin voit zoomata sisään; viivalla varustettua vihreää pistettä, niin voit zoomata ulos tai vihreitä nuolia, niin pääset viereisille kartoille.


METAR-TAF: